Time;durP1;ratioP1;P1;durP2;ratioP2;P2;SDS_P1;SDS_P2;PMS_P1;PMS_P2;Temp;Humidity;BMP_temperature;BMP_pressure;BME280_temperature;BME280_humidity;BME280_pressure;Samples;Min_cycle;Max_cycle;Signal;HPM_P1;HPM_P2
2022/04/25 00:01:30;;;;;;;12.52;7.95;;;7.20;78.80;;;;;;5118387;27;20043;-27
2022/04/25 00:03:56;;;;;;;16.08;8.82;;;7.30;55.50;;;;;;5103856;27;20044;-27
2022/04/25 00:06:22;;;;;;;13.02;7.97;;;7.10;69.70;;;;;;5097792;28;20063;-28
2022/04/25 00:08:48;;;;;;;17.17;7.88;;;7.10;87.20;;;;;;5094183;27;20051;-27
2022/04/25 00:11:14;;;;;;;14.38;7.97;;;7.30;52.80;;;;;;5118435;27;20058;-27
2022/04/25 00:13:40;;;;;;;15.05;8.43;;;7.10;50.10;;;;;;5086307;27;20050;-27
2022/04/25 00:16:05;;;;;;;15.70;8.63;;;7.30;57.50;;;;;;5116373;27;20051;-27
2022/04/25 00:18:31;;;;;;;14.13;7.88;;;7.20;44.90;;;;;;5121212;27;20043;-27
2022/04/25 00:20:57;;;;;;;17.50;8.65;;;7.10;52.00;;;;;;5136369;27;20043;-27
2022/04/25 00:23:23;;;;;;;13.95;7.80;;;7.30;42.20;;;;;;5113654;27;20377;-27
2022/04/25 00:25:50;;;;;;;11.73;7.43;;;7.40;84.40;;;;;;5110199;27;20484;-27
2022/04/25 00:28:15;;;;;;;12.77;8.98;;;7.20;74.80;;;;;;5110056;28;20037;-27
2022/04/25 00:30:41;;;;;;;14.95;8.73;;;7.20;57.20;;;;;;5115230;27;20054;-27
2022/04/25 00:33:07;;;;;;;16.05;7.97;;;7.40;67.30;;;;;;5101830;28;20067;-27
2022/04/25 00:35:33;;;;;;;15.25;8.85;;;7.20;54.40;;;;;;5114666;27;20052;-29
2022/04/25 00:37:58;;;;;;;15.93;8.45;;;7.20;72.60;;;;;;5130677;27;20095;-27
2022/04/25 00:40:25;;;;;;;15.10;8.40;;;7.30;94.80;;;;;;5128842;27;20047;-27
2022/04/25 00:42:52;;;;;;;19.90;9.00;;;7.50;99.90;;;;;;5117414;27;20529;-26
2022/04/25 00:45:18;;;;;;;13.75;8.00;;;7.30;96.10;;;;;;5134566;27;20039;-26
2022/04/25 00:47:45;;;;;;;15.05;7.80;;;7.50;92.80;;;;;;5125794;27;20469;-27
2022/04/25 00:50:12;;;;;;;15.57;7.95;;;7.40;83.00;;;;;;5117325;27;20039;-27
2022/04/25 00:52:38;;;;;;;10.32;6.85;;;7.60;70.60;;;;;;5133201;27;20043;-26
2022/04/25 00:55:07;;;;;;;14.32;7.57;;;7.50;54.50;;;;;;5120594;27;20118;-27
2022/04/25 00:57:34;;;;;;;11.90;7.03;;;7.40;35.70;;;;;;5131657;27;20050;-26
2022/04/25 01:00:00;;;;;;;14.82;7.15;;;7.40;22.20;;;;;;5096932;28;20046;-27
2022/04/25 01:02:27;;;;;;;11.48;7.68;;;7.40;45.60;;;;;;5128889;27;20047;-26
2022/04/25 01:04:54;;;;;;;15.77;7.40;;;7.40;58.70;;;;;;5131403;27;20123;-26
2022/04/25 01:07:20;;;;;;;12.05;6.72;;;7.60;50.10;;;;;;5133215;27;20469;-26
2022/04/25 01:09:46;;;;;;;12.43;6.65;;;7.50;70.80;;;;;;5081244;28;20046;-26
2022/04/25 01:12:12;;;;;;;13.43;7.20;;;7.50;96.80;;;;;;5125936;27;20126;-26
2022/04/25 01:14:38;;;;;;;11.43;7.55;;;7.60;74.80;;;;;;5132282;27;20046;-27
2022/04/25 01:17:04;;;;;;;13.75;7.97;;;7.50;99.90;;;;;;5117323;27;20480;-26
2022/04/25 01:19:31;;;;;;;15.23;8.32;;;7.30;99.90;;;;;;5124749;27;20404;-26
2022/04/25 01:22:02;;;;;;;12.30;8.55;;;7.30;99.90;;;;;;5096110;28;20055;-26
2022/04/25 01:27:18;;;;;;;17.65;8.20;;;7.50;99.90;;;;;;5134943;27;20051;-26
2022/04/25 01:29:45;;;;;;;15.50;7.60;;;7.20;99.90;;;;;;5106207;27;20052;-29
2022/04/25 01:32:11;;;;;;;13.30;7.80;;;7.40;99.90;;;;;;5108686;27;20051;-26
2022/04/25 01:34:38;;;;;;;14.77;7.60;;;7.40;99.90;;;;;;5104822;27;20047;-27
2022/04/25 01:37:08;;;;;;;16.08;8.27;;;7.40;99.90;;;;;;5134723;27;20046;-26
2022/04/25 01:39:38;;;;;;;16.10;8.18;;;7.20;99.90;;;;;;5099724;28;20401;-26
2022/04/25 01:42:06;;;;;;;11.05;7.65;;;7.40;99.90;;;;;;5093649;28;20044;-26
2022/04/25 01:44:32;;;;;;;16.33;8.40;;;7.30;99.90;;;;;;5096193;28;20052;-26
2022/04/25 01:46:57;;;;;;;17.17;7.82;;;7.40;99.90;;;;;;5095357;28;20040;-26
2022/04/25 01:49:24;;;;;;;14.13;8.23;;;7.60;99.90;;;;;;5114818;28;20047;-26
2022/04/25 01:51:50;;;;;;;14.63;7.57;;;7.30;99.90;;;;;;5114437;28;20089;-26
2022/04/25 01:54:24;;;;;;;17.95;6.85;;;7.30;99.90;;;;;;5102716;28;20079;-26
2022/04/25 01:56:49;;;;;;;15.13;8.85;;;7.30;99.90;;;;;;5132923;28;20047;-26
2022/04/25 01:59:15;;;;;;;16.45;9.45;;;7.20;99.90;;;;;;5111573;27;20051;-26
2022/04/25 02:01:41;;;;;;;19.60;9.02;;;7.40;99.90;;;;;;5107596;28;20035;-26
2022/04/25 02:04:07;;;;;;;17.88;8.50;;;7.30;99.90;;;;;;5113627;28;20513;-26
2022/04/25 02:06:32;;;;;;;16.23;8.88;;;7.60;99.90;;;;;;5119691;28;20434;-27
2022/04/25 02:08:58;;;;;;;13.65;8.18;;;7.40;99.90;;;;;;5121756;28;20057;-26
2022/04/25 02:11:24;;;;;;;13.48;8.55;;;7.70;99.90;;;;;;5107710;28;20043;-27
2022/04/25 02:13:51;;;;;;;14.05;8.93;;;7.60;99.90;;;;;;5133172;28;20433;-26
2022/04/25 02:16:25;;;;;;;19.30;8.85;;;7.40;99.90;;;;;;5128294;28;20389;-27
2022/04/25 02:18:52;;;;;;;16.55;8.45;;;7.40;99.90;;;;;;5132528;28;20035;-26
2022/04/25 02:21:18;;;;;;;17.08;8.82;;;7.40;99.90;;;;;;5134355;28;20166;-26
2022/04/25 02:23:44;;;;;;;18.63;8.57;;;7.60;95.10;;;;;;5121425;28;20040;-26
2022/04/25 02:26:10;;;;;;;16.73;8.18;;;7.50;57.40;;;;;;5128995;28;20127;-26
2022/04/25 02:28:37;;;;;;;12.43;7.60;;;7.50;29.50;;;;;;5113750;28;20040;-26
2022/04/25 02:31:05;;;;;;;12.30;8.05;;;7.70;4.20;;;;;;5095918;28;20051;-26
2022/04/25 02:33:32;;;;;;;10.52;7.30;;;7.70;1.00;;;;;;5108475;28;20095;-27
2022/04/25 02:35:59;;;;;;;15.30;7.72;;;7.70;1.00;;;;;;5125578;27;20074;-26
2022/04/25 02:38:25;;;;;;;14.05;7.50;;;7.60;1.00;;;;;;5132142;27;20043;-26
2022/04/25 02:41:06;;;;;;;15.68;7.15;;;7.50;1.00;;;;;;5099217;28;20082;-26
2022/04/25 02:43:35;;;;;;;14.70;6.75;;;7.50;1.00;;;;;;5117660;27;20094;-26
2022/04/25 02:46:03;;;;;;;13.68;7.07;;;7.60;1.00;;;;;;5136867;27;20046;-26
2022/04/25 02:48:30;;;;;;;14.15;7.47;;;7.50;1.00;;;;;;5102852;27;20053;-26
2022/04/25 02:50:57;;;;;;;16.33;7.88;;;7.50;1.00;;;;;;5137926;27;20401;-26
2022/04/25 02:53:24;;;;;;;14.02;7.18;;;7.90;1.00;;;;;;5129239;27;20089;-27
2022/04/25 02:55:52;;;;;;;13.95;7.70;;;7.50;1.00;;;;;;5126438;27;20095;-26
2022/04/25 02:58:18;;;;;;;13.07;6.93;;;7.70;1.00;;;;;;5127575;27;20046;-26
2022/04/25 03:00:46;;;;;;;10.23;6.57;;;7.50;1.00;;;;;;5118714;27;20043;-27
2022/04/25 03:03:16;;;;;;;16.27;7.53;;;7.50;1.00;;;;;;5130077;27;20043;-26
2022/04/25 03:05:43;;;;;;;14.00;6.97;;;7.60;1.00;;;;;;5126421;27;20058;-26
2022/04/25 03:08:13;;;;;;;16.63;6.60;;;7.60;1.00;;;;;;5109179;27;20473;-26
2022/04/25 03:10:45;;;;;;;11.10;6.45;;;7.70;1.00;;;;;;5127763;27;20100;-26
2022/04/25 03:13:12;;;;;;;9.43;6.45;;;7.70;1.00;;;;;;5115470;27;20091;-26
2022/04/25 03:15:41;;;;;;;11.38;6.13;;;7.50;1.00;;;;;;5116546;27;20047;-26
2022/04/25 03:18:11;;;;;;;12.73;5.55;;;7.50;1.00;;;;;;5134496;27;20147;-26
2022/04/25 03:20:41;;;;;;;10.48;5.90;;;7.60;1.00;;;;;;5113170;27;20043;-27
2022/04/25 03:23:07;;;;;;;9.80;5.47;;;7.80;1.00;;;;;;5117425;28;20043;-26
2022/04/25 03:25:34;;;;;;;13.32;6.20;;;7.70;1.00;;;;;;5098927;28;20400;-26
2022/04/25 03:28:00;;;;;;;11.48;6.28;;;7.60;1.00;;;;;;5116559;27;20043;-26
2022/04/25 03:30:27;;;;;;;11.52;6.30;;;7.70;1.00;;;;;;5132803;27;20043;-26
2022/04/25 03:32:53;;;;;;;14.70;6.50;;;7.70;1.00;;;;;;5135953;27;20055;-26
2022/04/25 03:35:22;;;;;;;15.25;6.53;;;8.00;1.00;;;;;;5132648;27;20043;-26
2022/04/25 03:37:49;;;;;;;12.02;5.85;;;7.60;1.00;;;;;;5135801;27;20493;-26
2022/04/25 03:40:15;;;;;;;11.20;6.03;;;7.50;1.00;;;;;;5123048;27;20045;-28
2022/04/25 03:42:43;;;;;;;12.68;6.68;;;7.70;1.00;;;;;;5133182;27;20430;-26
2022/04/25 03:45:09;;;;;;;13.68;6.60;;;7.70;1.00;;;;;;5121183;27;20412;-27
2022/04/25 03:47:36;;;;;;;11.00;5.88;;;7.50;1.00;;;;;;5111501;27;20160;-26
2022/04/25 03:50:02;;;;;;;12.95;6.65;;;7.50;1.00;;;;;;5136791;27;20055;-26
2022/04/25 03:52:29;;;;;;;13.45;7.35;;;7.50;1.00;;;;;;5109568;28;20047;-27
2022/04/25 03:57:39;;;;;;;10.50;7.53;;;7.50;1.00;;;;;;5119808;27;20073;-26
2022/04/25 04:00:06;;;;;;;12.02;6.50;;;7.50;1.00;;;;;;5102331;28;20067;-26
2022/04/25 04:02:33;;;;;;;11.23;6.32;;;7.40;1.00;;;;;;5119977;27;20068;-26
2022/04/25 04:05:00;;;;;;;13.63;6.95;;;7.70;1.00;;;;;;5126932;27;20040;-26
2022/04/25 04:07:26;;;;;;;10.88;6.85;;;7.50;1.00;;;;;;5119926;27;20389;-26
2022/04/25 04:09:52;;;;;;;13.13;7.47;;;7.40;1.00;;;;;;5122282;27;20054;-27
2022/04/25 04:12:19;;;;;;;13.23;7.03;;;7.40;1.00;;;;;;5116159;27;20393;-26
2022/04/25 04:14:46;;;;;;;11.85;7.45;;;7.80;1.00;;;;;;5131070;27;20522;-26
2022/04/25 04:17:13;;;;;;;13.40;7.50;;;7.40;1.00;;;;;;5131597;27;20081;-26
2022/04/25 04:19:39;;;;;;;12.75;7.40;;;7.60;1.00;;;;;;5128802;27;20054;-27
2022/04/25 04:22:06;;;;;;;10.73;7.35;;;7.60;1.00;;;;;;5135169;27;20047;-27
2022/04/25 04:24:34;;;;;;;11.43;7.68;;;7.60;1.00;;;;;;5116937;27;20046;-26
2022/04/25 04:27:04;;;;;;;14.80;7.70;;;7.50;1.00;;;;;;5136014;27;20051;-27
2022/04/25 04:29:31;;;;;;;11.68;7.72;;;7.40;1.00;;;;;;5111894;27;20088;-26
2022/04/25 04:32:02;;;;;;;15.45;8.00;;;7.40;1.00;;;;;;5117471;27;20043;-26
2022/04/25 04:34:28;;;;;;;14.48;8.23;;;7.40;1.00;;;;;;5136791;27;20047;-27
2022/04/25 04:36:54;;;;;;;13.98;7.40;;;7.40;1.00;;;;;;5127091;27;20035;-26
2022/04/25 04:39:21;;;;;;;11.63;7.78;;;7.40;1.00;;;;;;5116244;27;20127;-26
2022/04/25 04:41:47;;;;;;;12.57;8.45;;;7.50;1.00;;;;;;5120694;27;20118;-27
2022/04/25 04:44:13;;;;;;;12.70;8.00;;;7.40;1.00;;;;;;5117503;27;20051;-26
2022/04/25 04:46:39;;;;;;;16.17;7.88;;;7.60;1.00;;;;;;5096906;28;20047;-27
2022/04/25 04:49:05;;;;;;;11.55;7.80;;;7.40;1.00;;;;;;5121284;27;20501;-26
2022/04/25 04:51:31;;;;;;;15.25;7.68;;;7.60;1.00;;;;;;5115914;27;20113;-26
2022/04/25 04:54:00;;;;;;;14.82;7.57;;;7.30;1.00;;;;;;5095680;28;20079;-26
2022/04/25 04:56:26;;;;;;;12.60;7.68;;;7.40;1.00;;;;;;5115012;28;20360;-26
2022/04/25 04:58:52;;;;;;;13.82;8.00;;;7.40;1.00;;;;;;5127162;27;20050;-26
2022/04/25 05:01:18;;;;;;;13.70;8.52;;;7.50;1.00;;;;;;5116027;27;20039;-26
2022/04/25 05:03:44;;;;;;;14.50;8.52;;;7.60;1.00;;;;;;5114308;28;20481;-26
2022/04/25 05:06:10;;;;;;;17.13;8.50;;;7.60;1.00;;;;;;5112551;27;20121;-26
2022/04/25 05:08:36;;;;;;;14.18;9.35;;;7.60;1.00;;;;;;5098545;27;20031;-26
2022/04/25 05:11:04;;;;;;;14.50;9.02;;;7.50;1.00;;;;;;5105811;28;20508;-26
2022/04/25 05:13:31;;;;;;;16.73;10.00;;;7.50;1.00;;;;;;5076346;27;20063;-26
2022/04/25 05:15:57;;;;;;;12.02;8.80;;;7.70;1.00;;;;;;5135373;27;20047;-26
2022/04/25 05:18:24;;;;;;;12.98;9.10;;;7.50;1.00;;;;;;5127921;27;20043;-29
2022/04/25 05:20:50;;;;;;;15.73;8.88;;;7.60;1.00;;;;;;5113997;27;20122;-29
2022/04/25 05:23:16;;;;;;;19.00;8.98;;;7.60;1.00;;;;;;5132647;27;20050;-26
2022/04/25 05:25:42;;;;;;;16.10;9.23;;;7.70;1.00;;;;;;5135293;27;20055;-26
2022/04/25 05:28:08;;;;;;;14.98;10.43;;;8.00;1.00;;;;;;5101280;28;20039;-26
2022/04/25 05:30:35;;;;;;;15.50;9.18;;;7.70;1.00;;;;;;5114413;28;20047;-26
2022/04/25 05:33:03;;;;;;;15.52;8.77;;;7.70;1.00;;;;;;5103069;28;20050;-26
2022/04/25 05:35:31;;;;;;;16.58;9.05;;;7.70;1.00;;;;;;5134158;27;20043;-26
2022/04/25 05:37:57;;;;;;;14.60;9.00;;;7.70;1.00;;;;;;5126701;27;20035;-26
2022/04/25 05:40:25;;;;;;;12.90;8.32;;;7.80;1.00;;;;;;5115560;28;20103;-26
2022/04/25 05:42:52;;;;;;;15.18;8.07;;;7.60;1.00;;;;;;5120085;28;20048;-26
2022/04/25 05:45:22;;;;;;;14.68;8.93;;;7.90;1.00;;;;;;5097208;28;20044;-26
2022/04/25 05:47:49;;;;;;;14.18;8.63;;;7.80;1.00;;;;;;5115281;28;20500;-27
2022/04/25 05:53:01;;;;;;;13.13;8.82;;;7.60;1.00;;;;;;5115895;28;20450;-28
2022/04/25 05:55:28;;;;;;;14.77;8.70;;;7.90;1.00;;;;;;5107603;28;20055;-27
2022/04/25 05:57:55;;;;;;;18.88;9.52;;;8.00;1.00;;;;;;5129458;28;20043;-27
2022/04/25 06:00:21;;;;;;;15.32;9.15;;;7.60;1.00;;;;;;5133387;28;20415;-27
2022/04/25 06:02:47;;;;;;;13.77;8.73;;;8.00;1.00;;;;;;5080245;28;20122;-27
2022/04/25 06:05:15;;;;;;;14.77;8.20;;;7.70;1.00;;;;;;5115991;27;20405;-27
2022/04/25 06:07:43;;;;;;;14.13;8.43;;;7.80;1.00;;;;;;5125462;27;20039;-27
2022/04/25 06:10:13;;;;;;;15.05;8.43;;;7.80;1.00;;;;;;5137727;27;20050;-27
2022/04/25 06:12:48;;;;;;;11.85;7.90;;;8.10;1.00;;;;;;5119200;27;20602;-27
2022/04/25 06:15:18;;;;;;;15.68;7.93;;;8.00;1.00;;;;;;5117680;27;20043;-28
2022/04/25 06:17:44;;;;;;;11.05;6.75;;;7.90;1.00;;;;;;5133116;27;20039;-27
2022/04/25 06:20:10;;;;;;;12.55;6.53;;;8.10;1.00;;;;;;5138485;27;20046;-27
2022/04/25 06:22:37;;;;;;;13.15;7.15;;;8.10;1.00;;;;;;5129927;27;20043;-27
2022/04/25 06:25:04;;;;;;;11.32;4.95;;;8.20;1.00;;;;;;5109697;28;20059;-27
2022/04/25 06:27:30;;;;;;;14.18;5.93;;;8.10;1.00;;;;;;5129473;27;20481;-26
2022/04/25 06:29:56;;;;;;;10.10;6.75;;;8.30;1.00;;;;;;5139172;27;20130;-27
2022/04/25 06:32:22;;;;;;;9.30;4.93;;;8.20;1.00;;;;;;5129462;27;20507;-27
2022/04/25 06:34:48;;;;;;;11.85;6.07;;;8.20;1.00;;;;;;5133537;27;20054;-27
2022/04/25 06:37:14;;;;;;;13.85;6.53;;;8.10;99.90;;;;;;5118114;28;20032;-27
2022/04/25 06:39:40;;;;;;;11.00;6.13;;;8.20;99.90;;;;;;5098984;27;20047;-27
2022/04/25 06:42:08;;;;;;;14.30;6.00;;;8.40;99.90;;;;;;5116806;27;20054;-27
2022/04/25 06:44:34;;;;;;;12.13;6.07;;;8.10;99.90;;;;;;5118063;27;20570;-27
2022/04/25 06:47:00;;;;;;;9.50;5.65;;;8.30;99.90;;;;;;5100014;27;20079;-27
2022/04/25 06:49:27;;;;;;;13.90;5.28;;;8.10;99.90;;;;;;5131482;27;20039;-26
2022/04/25 06:51:58;;;;;;;10.05;6.00;;;8.10;99.90;;;;;;5108703;27;20059;-26
2022/04/25 06:54:25;;;;;;;9.15;5.35;;;8.20;99.90;;;;;;5117671;28;20047;-27
2022/04/25 06:56:53;;;;;;;10.98;6.13;;;8.20;99.90;;;;;;5126298;27;20515;-27
2022/04/25 06:59:19;;;;;;;8.23;5.60;;;8.20;99.90;;;;;;5128677;27;20059;-27
2022/04/25 07:01:47;;;;;;;10.35;5.72;;;8.20;99.90;;;;;;5131243;27;20086;-27
2022/04/25 07:04:13;;;;;;;12.82;5.60;;;8.40;99.90;;;;;;5126013;27;20118;-26
2022/04/25 07:06:39;;;;;;;9.70;6.53;;;8.40;99.90;;;;;;5132404;27;20468;-26
2022/04/25 07:09:12;;;;;;;15.38;6.82;;;8.70;99.90;;;;;;5137617;27;20085;-28
2022/04/25 07:11:43;;;;;;;14.27;6.32;;;8.50;99.90;;;;;;5098708;28;20128;-27
2022/04/25 07:14:17;;;;;;;10.77;6.43;;;8.50;99.90;;;;;;5101842;28;20122;-26
2022/04/25 07:16:48;;;;;;;11.07;6.50;;;8.60;99.90;;;;;;5102359;27;20396;-28
2022/04/25 07:19:17;;;;;;;12.02;6.28;;;8.60;99.90;;;;;;5125669;27;20058;-27
2022/04/25 07:29:56;;;;;;;12.10;6.00;;;8.90;99.90;;;;;;5121843;27;20050;-27
2022/04/25 07:32:22;;;;;;;11.50;5.75;;;9.00;99.90;;;;;;5107004;27;20138;-27
2022/04/25 07:34:48;;;;;;;18.38;5.68;;;9.10;99.90;;;;;;5121643;27;20047;-27
2022/04/25 07:37:15;;;;;;;10.73;5.53;;;9.10;99.90;;;;;;5117435;27;20103;-27
2022/04/25 07:39:41;;;;;;;12.45;5.13;;;9.10;99.90;;;;;;5116978;27;20035;-27
2022/04/25 07:42:06;;;;;;;12.07;5.43;;;9.20;99.90;;;;;;5126636;27;20048;-27
2022/04/25 07:44:32;;;;;;;11.25;5.47;;;9.20;99.90;;;;;;5104603;28;20082;-28
2022/04/25 07:46:59;;;;;;;11.55;5.20;;;9.30;99.90;;;;;;5130041;27;20043;-27
2022/04/25 07:49:26;;;;;;;9.75;5.15;;;9.40;99.90;;;;;;5118349;27;20047;-27
2022/04/25 07:51:52;;;;;;;8.35;4.72;;;9.60;99.90;;;;;;5118702;27;20132;-27
2022/04/25 07:54:22;;;;;;;11.32;4.82;;;9.40;99.90;;;;;;5136668;27;20039;-27
2022/04/25 07:56:48;;;;;;;10.95;5.10;;;9.40;99.90;;;;;;5106746;27;20054;-28
2022/04/25 07:59:15;;;;;;;11.35;4.68;;;9.40;99.90;;;;;;5125219;27;20039;-27
2022/04/25 08:01:41;;;;;;;9.50;4.32;;;9.20;99.90;;;;;;5118166;27;20043;-27
2022/04/25 08:04:07;;;;;;;10.30;5.35;;;9.50;99.90;;;;;;5136166;27;20047;-27
2022/04/25 08:06:33;;;;;;;8.23;4.47;;;9.40;99.90;;;;;;5111710;27;20558;-27
2022/04/25 08:09:02;;;;;;;9.55;3.92;;;9.50;99.90;;;;;;5101256;27;20039;-27
2022/04/25 08:11:27;;;;;;;7.70;3.78;;;9.80;99.90;;;;;;5136282;27;20043;-28
2022/04/25 08:19:22;;;;;;;8.15;3.42;;;10.10;99.90;;;;;;5100397;28;20109;-27
2022/04/25 08:21:48;;;;;;;7.70;3.58;;;10.30;99.90;;;;;;5097535;28;20047;-28
2022/04/25 08:24:14;;;;;;;6.85;3.33;;;10.40;99.90;;;;;;5104488;27;20396;-29
2022/04/25 08:26:41;;;;;;;6.53;3.97;;;10.40;85.60;;;;;;5134441;27;20046;-27
2022/04/25 08:29:07;;;;;;;7.07;4.15;;;10.40;92.10;;;;;;5112982;27;20149;-27
2022/04/25 08:31:35;;;;;;;8.18;3.47;;;10.30;62.50;;;;;;5133185;27;20085;-27
2022/04/25 08:34:02;;;;;;;8.60;4.03;;;10.20;20.60;;;;;;5123695;27;20123;-27
2022/04/25 08:36:29;;;;;;;7.10;4.53;;;10.20;94.10;;;;;;5128583;27;20233;-27
2022/04/25 08:38:55;;;;;;;7.25;4.45;;;10.30;99.30;;;;;;5117503;27;20047;-27
2022/04/25 08:41:30;;;;;;;6.70;4.05;;;10.30;73.20;;;;;;5108992;27;20063;-27
2022/04/25 08:43:57;;;;;;;8.40;4.22;;;10.20;77.40;;;;;;5097038;28;20062;-27
2022/04/25 08:46:23;;;;;;;6.45;4.20;;;10.20;76.70;;;;;;5121485;27;20069;-28
2022/04/25 08:48:51;;;;;;;9.55;4.45;;;10.40;58.80;;;;;;5121483;27;20069;-27
2022/04/25 08:51:17;;;;;;;6.30;4.03;;;10.50;65.30;;;;;;5103282;27;20042;-27
2022/04/25 08:53:50;;;;;;;5.45;3.90;;;10.50;67.30;;;;;;5126703;27;20138;-28
2022/04/25 08:56:17;;;;;;;10.02;4.10;;;10.70;53.40;;;;;;5105110;28;20059;-28
2022/04/25 08:58:46;;;;;;;9.27;3.78;;;10.70;49.70;;;;;;5097555;28;20075;-27
2022/04/25 09:01:13;;;;;;;5.90;2.90;;;10.90;51.10;;;;;;5095760;28;20142;-27
2022/04/25 09:03:38;;;;;;;10.18;4.00;;;11.00;25.80;;;;;;5100091;28;20121;-28
2022/04/25 09:06:06;;;;;;;7.05;3.55;;;11.20;29.00;;;;;;5109270;28;20079;-27
2022/04/25 09:08:32;;;;;;;8.25;4.20;;;11.60;14.80;;;;;;5111799;28;20040;-28
2022/04/25 09:13:44;;;;;;;8.27;3.58;;;12.00;1.80;;;;;;5104779;27;20052;-28
2022/04/25 09:16:14;;;;;;;6.47;3.92;;;11.90;1.00;;;;;;5098451;28;20051;-29
2022/04/25 09:18:41;;;;;;;5.50;3.53;;;12.00;1.00;;;;;;5111129;28;20048;-28
2022/04/25 09:21:07;;;;;;;8.13;3.38;;;12.20;1.00;;;;;;5106091;28;20138;-28
2022/04/25 09:23:33;;;;;;;8.88;3.67;;;12.00;1.00;;;;;;5111868;28;20203;-28
2022/04/25 09:26:15;;;;;;;7.68;3.28;;;11.80;1.00;;;;;;5110949;28;20044;-28
2022/04/25 09:28:49;;;;;;;5.30;2.72;;;11.70;1.00;;;;;;5110917;28;20050;-28
2022/04/25 09:31:16;;;;;;;5.15;3.33;;;11.60;1.00;;;;;;5101036;28;20044;-28
2022/04/25 09:33:43;;;;;;;5.70;3.10;;;11.70;1.00;;;;;;5122105;27;20048;-28
2022/04/25 09:36:09;;;;;;;8.00;3.10;;;11.80;1.00;;;;;;5091133;28;20136;-28
2022/04/25 09:38:37;;;;;;;4.05;2.63;;;12.00;1.00;;;;;;5110762;28;20048;-28
2022/04/25 09:41:06;;;;;;;8.38;3.15;;;11.90;1.00;;;;;;5110614;28;20050;-28
2022/04/25 09:43:38;;;;;;;6.97;2.50;;;12.00;1.00;;;;;;5110622;28;20035;-28
2022/04/25 09:46:09;;;;;;;5.13;2.92;;;11.60;1.00;;;;;;5080332;28;20060;-28
2022/04/25 09:48:36;;;;;;;5.22;2.67;;;11.60;1.00;;;;;;5101383;28;20047;-28
2022/04/25 09:51:07;;;;;;;6.78;3.22;;;11.30;1.00;;;;;;5101008;28;20123;-28
2022/04/25 09:53:50;;;;;;;7.40;3.08;;;11.40;1.00;;;;;;5098500;28;20068;-28
2022/04/25 09:56:20;;;;;;;5.47;2.78;;;11.60;1.00;;;;;;5101771;28;20044;-28
2022/04/25 09:59:01;;;;;;;7.32;3.47;;;11.90;1.00;;;;;;5090498;28;20090;-28
2022/04/25 10:01:27;;;;;;;6.25;2.95;;;12.30;1.00;;;;;;5089559;28;20040;-28
2022/04/25 10:03:53;;;;;;;8.45;3.42;;;12.60;1.00;;;;;;5082541;28;20048;-29
2022/04/25 10:06:23;;;;;;;9.82;3.38;;;12.70;1.00;;;;;;5071788;28;20513;-28
2022/04/25 10:08:51;;;;;;;7.75;3.38;;;12.70;1.00;;;;;;5075731;28;20514;-29
2022/04/25 10:11:19;;;;;;;7.53;3.10;;;12.50;1.00;;;;;;5074061;28;20088;-28
2022/04/25 10:13:47;;;;;;;7.20;3.08;;;12.90;1.00;;;;;;5074802;28;20053;-28
2022/04/25 10:16:13;;;;;;;9.35;3.08;;;12.90;1.00;;;;;;5077767;28;20051;-28
2022/04/25 10:18:39;;;;;;;5.35;2.50;;;13.10;1.00;;;;;;5073158;28;20049;-29
2022/04/25 10:21:07;;;;;;;5.68;2.28;;;13.20;1.00;;;;;;5053081;28;20033;-29
2022/04/25 10:23:34;;;;;;;7.15;2.40;;;13.00;1.00;;;;;;5076555;28;20394;-28
2022/04/25 10:26:01;;;;;;;5.57;2.78;;;13.10;1.00;;;;;;5076051;28;20406;-28
2022/04/25 10:29:07;;;;;;;5.35;2.38;;;12.90;1.00;;;;;;5075749;28;20049;-29
2022/04/25 10:31:41;;;;;;;4.32;2.65;;;13.50;1.00;;;;;;5074178;28;20059;-28
2022/04/25 10:34:08;;;;;;;6.05;2.67;;;14.70;99.90;;;;;;5095567;28;20139;-28
2022/04/25 10:36:37;;;;;;;4.38;2.55;;;15.50;1.00;;;;;;5086179;28;20047;-28
2022/04/25 10:39:16;;;;;;;5.07;2.80;;;15.50;99.90;;;;;;5096003;28;20055;-28
2022/04/25 10:44:26;;;;;;;4.25;2.58;;;14.60;99.90;;;;;;5094436;28;20048;-28
2022/04/25 10:47:05;;;;;;;7.53;2.38;;;14.10;99.90;;;;;;5061848;28;20044;-30
2022/04/25 10:49:32;;;;;;;4.95;2.47;;;13.30;99.90;;;;;;5078876;28;20080;-31
2022/04/25 10:51:59;;;;;;;6.00;2.80;;;13.30;99.90;;;;;;5074501;28;20135;-28
2022/04/25 10:54:28;;;;;;;5.07;2.40;;;13.60;99.90;;;;;;5073976;28;20048;-28
2022/04/25 10:57:10;;;;;;;4.95;2.53;;;13.50;99.90;;;;;;5082063;28;20075;-28
2022/04/25 10:59:37;;;;;;;6.82;2.72;;;13.00;99.90;;;;;;5080609;28;20047;-28
2022/04/25 11:02:20;;;;;;;7.28;2.97;;;12.70;99.90;;;;;;5094905;28;20456;-28
2022/04/25 11:04:46;;;;;;;3.80;2.40;;;12.60;99.90;;;;;;5089235;28;20105;-28
2022/04/25 11:07:23;;;;;;;5.13;3.90;;;12.60;1.00;;;;;;5080820;28;20678;-28
2022/04/25 11:09:48;;;;;;;5.22;2.45;;;12.50;1.00;;;;;;5076095;28;20051;-28
2022/04/25 11:12:14;;;;;;;5.45;2.63;;;12.40;1.00;;;;;;5055011;28;20037;-28
2022/04/25 11:14:57;;;;;;;6.95;2.88;;;12.30;1.00;;;;;;5065196;28;20032;-28
2022/04/25 11:17:23;;;;;;;6.45;2.28;;;12.10;1.00;;;;;;5081931;28;20066;-28
2022/04/25 11:19:51;;;;;;;7.15;3.65;;;12.00;1.00;;;;;;5089541;28;20464;-28
2022/04/25 11:22:52;;;;;;;6.00;2.60;;;12.00;1.00;;;;;;5095131;28;20036;-28
2022/04/25 11:25:27;;;;;;;7.88;3.05;;;12.00;1.00;;;;;;5083077;28;20099;-28
2022/04/25 11:28:04;;;;;;;7.43;3.08;;;12.00;1.00;;;;;;5054479;28;20045;-28
2022/04/25 11:30:31;;;;;;;8.27;2.85;;;12.00;1.00;;;;;;5074397;28;20040;-28
2022/04/25 11:33:04;;;;;;;7.15;3.72;;;12.00;1.00;;;;;;5074235;28;20491;-29
2022/04/25 11:35:30;;;;;;;8.25;3.22;;;12.20;1.00;;;;;;5075984;28;20445;-28
2022/04/25 11:37:57;;;;;;;9.23;3.17;;;12.40;1.00;;;;;;5074609;28;20506;-28
2022/04/25 11:40:24;;;;;;;5.47;3.05;;;12.50;1.00;;;;;;5074485;28;20088;-28
2022/04/25 11:42:50;;;;;;;7.00;3.15;;;12.40;1.00;;;;;;5074412;28;20047;-28
2022/04/25 11:45:16;;;;;;;7.05;3.47;;;12.30;1.00;;;;;;5072082;28;20040;-28
2022/04/25 11:47:42;;;;;;;7.63;2.47;;;12.30;1.00;;;;;;5074450;28;20047;-28
2022/04/25 11:50:12;;;;;;;9.25;3.63;;;12.20;1.00;;;;;;5075356;28;20124;-28
2022/04/25 11:52:48;;;;;;;5.47;3.00;;;12.20;1.00;;;;;;5094167;28;20087;-28
2022/04/25 11:55:16;;;;;;;5.65;2.63;;;12.20;1.00;;;;;;5095009;28;20056;-28
2022/04/25 11:57:43;;;;;;;8.43;3.40;;;12.10;1.00;;;;;;5074116;28;20083;-28
2022/04/25 12:00:14;;;;;;;8.75;2.47;;;12.20;1.00;;;;;;5074172;28;20052;-28
2022/04/25 12:02:40;;;;;;;8.10;3.38;;;12.20;1.00;;;;;;5074302;28;20049;-28
2022/04/25 12:05:07;;;;;;;8.73;3.35;;;12.10;1.00;;;;;;5074427;28;20109;-28
2022/04/25 12:07:37;;;;;;;8.10;2.85;;;12.10;1.00;;;;;;5076476;28;20051;-28
2022/04/25 12:15:42;;;;;;;4.75;2.75;;;12.00;1.00;;;;;;5062346;28;20128;-28
2022/04/25 12:18:17;;;;;;;5.63;3.05;;;12.00;1.00;;;;;;5070972;28;20044;-28
2022/04/25 12:20:45;;;;;;;8.85;3.20;;;12.00;1.00;;;;;;5053896;28;20124;-29
2022/04/25 12:23:23;;;;;;;4.53;2.25;;;12.00;1.00;;;;;;5063358;28;20055;-29
2022/04/25 12:25:50;;;;;;;7.95;3.60;;;11.90;1.00;;;;;;5074978;28;20072;-28
2022/04/25 12:28:17;;;;;;;4.15;2.63;;;12.00;1.00;;;;;;5093895;28;20051;-28
2022/04/25 12:30:53;;;;;;;6.25;2.80;;;12.00;1.00;;;;;;5094011;28;20044;-28
2022/04/25 12:33:22;;;;;;;7.15;3.00;;;12.10;1.00;;;;;;5093044;28;20044;-28
2022/04/25 12:35:51;;;;;;;8.00;3.15;;;12.10;1.00;;;;;;5089002;28;20048;-28
2022/04/25 12:38:41;;;;;;;7.07;3.17;;;12.10;1.00;;;;;;5080424;28;20036;-28
2022/04/25 12:41:08;;;;;;;10.15;3.50;;;12.30;1.00;;;;;;5076578;28;20091;-29
2022/04/25 12:43:35;;;;;;;6.40;2.65;;;12.30;1.00;;;;;;5091358;28;20036;-28
2022/04/25 12:46:02;;;;;;;4.03;2.45;;;12.30;1.00;;;;;;5074184;28;20135;-28
2022/04/25 12:48:28;;;;;;;6.15;3.50;;;12.50;1.00;;;;;;5073517;28;20540;-28
2022/04/25 12:50:53;;;;;;;8.80;3.45;;;12.50;1.00;;;;;;5070862;28;20045;-28
2022/04/25 12:53:38;;;;;;;7.28;2.80;;;12.70;1.00;;;;;;5077977;28;20040;-28
2022/04/25 12:56:04;;;;;;;6.82;3.00;;;12.70;1.00;;;;;;5083101;28;20105;-28
2022/04/25 12:58:33;;;;;;;9.45;3.65;;;12.80;1.00;;;;;;5055593;28;20056;-28
2022/04/25 13:01:00;;;;;;;6.80;2.80;;;13.00;1.00;;;;;;5077882;28;20046;-28
2022/04/25 13:03:28;;;;;;;8.50;3.38;;;13.00;1.00;;;;;;5093658;28;20047;-30
2022/04/25 13:05:54;;;;;;;8.27;3.20;;;13.10;1.00;;;;;;5092469;28;20070;-29
2022/04/25 13:08:20;;;;;;;7.57;3.25;;;13.40;1.00;;;;;;5069027;28;20490;-29
2022/04/25 13:10:46;;;;;;;7.43;3.03;;;13.90;1.00;;;;;;5072252;28;20121;-29
2022/04/25 13:13:13;;;;;;;7.00;3.63;;;14.10;1.00;;;;;;5071523;28;20475;-28
2022/04/25 13:15:38;;;;;;;5.07;2.50;;;13.80;1.00;;;;;;5076748;28;20128;-28
2022/04/25 13:18:05;;;;;;;8.05;2.92;;;13.90;99.90;;;;;;5081456;28;20124;-29
2022/04/25 13:20:31;;;;;;;6.38;2.63;;;14.20;99.90;;;;;;5080461;28;20045;-28
2022/04/25 13:22:59;;;;;;;6.72;3.25;;;14.50;99.90;;;;;;5093498;28;20039;-28
2022/04/25 13:25:25;;;;;;;6.05;2.97;;;15.00;99.90;;;;;;5085970;28;20044;-28
2022/04/25 13:27:52;;;;;;;6.00;2.40;;;15.60;99.90;;;;;;5072301;28;20087;-28
2022/04/25 13:30:19;;;;;;;9.50;3.45;;;15.20;99.90;;;;;;5079961;28;20087;-28